Aspatria, United Kingdom
Current Conditions -  °F | °C
As of 7:50 AM on Wednesday 26 Nov 2014 (Local Time) from EGOM Reporting Station
Light Rain Light Rain  
Wind Chill: 32°   Ceiling: 5000
Heat Index: 37°   Visibility: 6mi
Dew Point: 37°   Wind: 7mph
Humidity: 100%   Direction: 60°ENE
Pressure: 29.97"   Gusts: NA
Location:  54.77°N, 3.33°W
Report Text: EGOM 260750Z AUTO 06006KT 9999 -RA FEW005/// BKN050/// 03/03 Q1015
Loading
Personal Weather Stations






























Interactive Weather Map New forecast layout! Learn more

10-Day Weather Forecast

Advertisements
Track Severe Weather on mobile